sensor_id;sensor_type;location;lat;lon;timestamp;temperature;humidity
13835;DHT22;6988;52.614;13.500;2023-01-25T00:04:27;1.60;99.90
13835;DHT22;6988;52.614;13.500;2023-01-25T00:09:19;1.50;99.90
13835;DHT22;6988;52.614;13.500;2023-01-25T00:14:12;1.50;99.90
13835;DHT22;6988;52.614;13.500;2023-01-25T00:19:07;1.50;99.90
13835;DHT22;6988;52.614;13.500;2023-01-25T00:24:00;1.50;99.90
13835;DHT22;6988;52.614;13.500;2023-01-25T00:28:53;1.50;99.90
13835;DHT22;6988;52.614;13.500;2023-01-25T00:33:50;1.50;99.90
13835;DHT22;6988;52.614;13.500;2023-01-25T00:38:47;1.40;99.90
13835;DHT22;6988;52.614;13.500;2023-01-25T00:43:39;1.50;99.90
13835;DHT22;6988;52.614;13.500;2023-01-25T00:48:31;1.40;99.90
13835;DHT22;6988;52.614;13.500;2023-01-25T00:53:24;1.40;99.90
13835;DHT22;6988;52.614;13.500;2023-01-25T00:58:17;1.50;99.90
13835;DHT22;6988;52.614;13.500;2023-01-25T01:03:09;1.50;99.90
13835;DHT22;6988;52.614;13.500;2023-01-25T01:08:01;1.50;99.90
13835;DHT22;6988;52.614;13.500;2023-01-25T01:12:53;1.60;99.90
13835;DHT22;6988;52.614;13.500;2023-01-25T01:17:46;1.50;99.90
13835;DHT22;6988;52.614;13.500;2023-01-25T01:22:37;1.50;99.90
13835;DHT22;6988;52.614;13.500;2023-01-25T01:27:29;1.50;99.90
13835;DHT22;6988;52.614;13.500;2023-01-25T01:32:21;1.50;99.90
13835;DHT22;6988;52.614;13.500;2023-01-25T01:37:16;1.50;99.90
13835;DHT22;6988;52.614;13.500;2023-01-25T01:42:08;1.40;99.90
13835;DHT22;6988;52.614;13.500;2023-01-25T01:47:01;1.60;99.90
13835;DHT22;6988;52.614;13.500;2023-01-25T01:51:59;1.50;99.90
13835;DHT22;6988;52.614;13.500;2023-01-25T01:57:02;1.50;99.90
13835;DHT22;6988;52.614;13.500;2023-01-25T02:01:57;1.50;99.90
13835;DHT22;6988;52.614;13.500;2023-01-25T02:06:52;1.50;99.90
13835;DHT22;6988;52.614;13.500;2023-01-25T02:11:49;1.50;99.90
13835;DHT22;6988;52.614;13.500;2023-01-25T02:16:43;1.50;99.90
13835;DHT22;6988;52.614;13.500;2023-01-25T02:21:40;1.50;99.90
13835;DHT22;6988;52.614;13.500;2023-01-25T02:26:36;1.50;99.90
13835;DHT22;6988;52.614;13.500;2023-01-25T02:31:29;1.60;99.90
13835;DHT22;6988;52.614;13.500;2023-01-25T02:36:25;1.50;99.90
13835;DHT22;6988;52.614;13.500;2023-01-25T02:41:24;1.60;99.90
13835;DHT22;6988;52.614;13.500;2023-01-25T02:46:27;1.70;99.90
13835;DHT22;6988;52.614;13.500;2023-01-25T02:51:23;1.60;99.90
13835;DHT22;6988;52.614;13.500;2023-01-25T02:56:18;1.60;99.90
13835;DHT22;6988;52.614;13.500;2023-01-25T03:01:13;1.50;99.90
13835;DHT22;6988;52.614;13.500;2023-01-25T03:06:07;1.50;99.90
13835;DHT22;6988;52.614;13.500;2023-01-25T03:11:02;1.50;99.90
13835;DHT22;6988;52.614;13.500;2023-01-25T03:15:58;1.50;99.90
13835;DHT22;6988;52.614;13.500;2023-01-25T03:20:51;1.50;99.90
13835;DHT22;6988;52.614;13.500;2023-01-25T03:25:44;1.50;99.90
13835;DHT22;6988;52.614;13.500;2023-01-25T03:30:40;1.50;99.90
13835;DHT22;6988;52.614;13.500;2023-01-25T03:35:32;1.60;99.90
13835;DHT22;6988;52.614;13.500;2023-01-25T03:40:24;1.60;99.90
13835;DHT22;6988;52.614;13.500;2023-01-25T03:45:18;1.60;99.90
13835;DHT22;6988;52.614;13.500;2023-01-25T03:50:10;1.60;99.90
13835;DHT22;6988;52.614;13.500;2023-01-25T03:55:04;1.60;99.90
13835;DHT22;6988;52.614;13.500;2023-01-25T04:00:00;1.60;99.90
13835;DHT22;6988;52.614;13.500;2023-01-25T04:04:56;1.70;99.90
13835;DHT22;6988;52.614;13.500;2023-01-25T04:09:48;1.60;99.90
13835;DHT22;6988;52.614;13.500;2023-01-25T04:14:41;1.60;99.90
13835;DHT22;6988;52.614;13.500;2023-01-25T04:19:33;1.70;99.90
13835;DHT22;6988;52.614;13.500;2023-01-25T04:24:28;1.60;99.90
13835;DHT22;6988;52.614;13.500;2023-01-25T04:29:20;1.60;99.90
13835;DHT22;6988;52.614;13.500;2023-01-25T04:34:12;1.60;99.90
13835;DHT22;6988;52.614;13.500;2023-01-25T04:39:05;1.60;99.90
13835;DHT22;6988;52.614;13.500;2023-01-25T04:43:58;1.60;99.90
13835;DHT22;6988;52.614;13.500;2023-01-25T04:48:50;1.60;99.90
13835;DHT22;6988;52.614;13.500;2023-01-25T04:53:42;1.60;99.90
13835;DHT22;6988;52.614;13.500;2023-01-25T04:58:34;1.60;99.90
13835;DHT22;6988;52.614;13.500;2023-01-25T05:03:28;1.60;99.90
13835;DHT22;6988;52.614;13.500;2023-01-25T05:08:20;1.60;99.90
13835;DHT22;6988;52.614;13.500;2023-01-25T05:13:12;1.60;99.90
13835;DHT22;6988;52.614;13.500;2023-01-25T05:18:04;1.60;99.90
13835;DHT22;6988;52.614;13.500;2023-01-25T05:22:59;1.60;99.90
13835;DHT22;6988;52.614;13.500;2023-01-25T05:27:52;1.70;99.90
13835;DHT22;6988;52.614;13.500;2023-01-25T05:33:03;1.60;99.90
13835;DHT22;6988;52.614;13.500;2023-01-25T05:37:56;1.70;99.90
13835;DHT22;6988;52.614;13.500;2023-01-25T05:42:54;1.70;99.90
13835;DHT22;6988;52.614;13.500;2023-01-25T05:47:51;1.70;99.90
13835;DHT22;6988;52.614;13.500;2023-01-25T05:52:44;1.70;99.90
13835;DHT22;6988;52.614;13.500;2023-01-25T05:57:37;1.70;99.90
13835;DHT22;6988;52.614;13.500;2023-01-25T06:02:30;1.80;99.90
13835;DHT22;6988;52.614;13.500;2023-01-25T06:07:22;1.80;99.90
13835;DHT22;6988;52.614;13.500;2023-01-25T06:12:15;1.90;99.90
13835;DHT22;6988;52.614;13.500;2023-01-25T06:17:08;1.70;99.90
13835;DHT22;6988;52.614;13.500;2023-01-25T06:22:23;1.70;99.90
13835;DHT22;6988;52.614;13.500;2023-01-25T06:27:14;1.60;99.90
13835;DHT22;6988;52.614;13.500;2023-01-25T06:32:06;1.70;99.90
13835;DHT22;6988;52.614;13.500;2023-01-25T06:36:58;1.70;99.90
13835;DHT22;6988;52.614;13.500;2023-01-25T06:41:51;1.60;99.90
13835;DHT22;6988;52.614;13.500;2023-01-25T06:46:44;1.70;99.90
13835;DHT22;6988;52.614;13.500;2023-01-25T06:51:36;1.70;99.90
13835;DHT22;6988;52.614;13.500;2023-01-25T06:56:28;1.80;99.90
13835;DHT22;6988;52.614;13.500;2023-01-25T07:01:22;1.80;99.90
13835;DHT22;6988;52.614;13.500;2023-01-25T07:06:17;1.70;99.90
13835;DHT22;6988;52.614;13.500;2023-01-25T07:11:11;1.80;99.90
13835;DHT22;6988;52.614;13.500;2023-01-25T07:16:05;1.80;99.90
13835;DHT22;6988;52.614;13.500;2023-01-25T07:21:03;1.80;99.90
13835;DHT22;6988;52.614;13.500;2023-01-25T07:25:56;1.80;99.90
13835;DHT22;6988;52.614;13.500;2023-01-25T07:30:48;1.80;99.90
13835;DHT22;6988;52.614;13.500;2023-01-25T07:35:40;1.80;99.90
13835;DHT22;6988;52.614;13.500;2023-01-25T07:40:34;1.80;99.90
13835;DHT22;6988;52.614;13.500;2023-01-25T07:45:25;1.80;99.90
13835;DHT22;6988;52.614;13.500;2023-01-25T07:50:19;1.90;99.90
13835;DHT22;6988;52.614;13.500;2023-01-25T07:55:11;1.90;99.90
13835;DHT22;6988;52.614;13.500;2023-01-25T08:00:05;2.00;99.90
13835;DHT22;6988;52.614;13.500;2023-01-25T08:05:03;2.00;99.90
13835;DHT22;6988;52.614;13.500;2023-01-25T08:09:55;2.10;99.90
13835;DHT22;6988;52.614;13.500;2023-01-25T08:14:47;2.00;99.90
13835;DHT22;6988;52.614;13.500;2023-01-25T08:19:41;2.00;99.90
13835;DHT22;6988;52.614;13.500;2023-01-25T08:24:33;2.10;99.90
13835;DHT22;6988;52.614;13.500;2023-01-25T08:29:24;2.00;99.90
13835;DHT22;6988;52.614;13.500;2023-01-25T08:34:17;2.10;99.90
13835;DHT22;6988;52.614;13.500;2023-01-25T08:39:11;2.10;99.90
13835;DHT22;6988;52.614;13.500;2023-01-25T08:44:03;2.10;99.90
13835;DHT22;6988;52.614;13.500;2023-01-25T08:48:56;2.10;99.90
13835;DHT22;6988;52.614;13.500;2023-01-25T08:53:48;2.20;99.90
13835;DHT22;6988;52.614;13.500;2023-01-25T08:58:43;2.10;99.90
13835;DHT22;6988;52.614;13.500;2023-01-25T09:03:36;2.10;99.90
13835;DHT22;6988;52.614;13.500;2023-01-25T09:08:29;2.20;99.90
13835;DHT22;6988;52.614;13.500;2023-01-25T09:13:21;2.10;99.90
13835;DHT22;6988;52.614;13.500;2023-01-25T09:18:14;2.10;99.90
13835;DHT22;6988;52.614;13.500;2023-01-25T09:23:05;2.10;99.90
13835;DHT22;6988;52.614;13.500;2023-01-25T09:27:57;2.10;99.90
13835;DHT22;6988;52.614;13.500;2023-01-25T09:32:49;2.10;99.90
13835;DHT22;6988;52.614;13.500;2023-01-25T09:37:43;2.10;99.90
13835;DHT22;6988;52.614;13.500;2023-01-25T09:42:53;2.00;99.90
13835;DHT22;6988;52.614;13.500;2023-01-25T09:47:53;2.00;99.90
13835;DHT22;6988;52.614;13.500;2023-01-25T09:58:16;2.00;99.90
13835;DHT22;6988;52.614;13.500;2023-01-25T10:03:14;2.10;99.90
13835;DHT22;6988;52.614;13.500;2023-01-25T10:08:18;2.20;99.90
13835;DHT22;6988;52.614;13.500;2023-01-25T10:13:21;2.10;99.90
13835;DHT22;6988;52.614;13.500;2023-01-25T10:18:21;2.10;99.90
13835;DHT22;6988;52.614;13.500;2023-01-25T10:23:31;2.10;99.90
13835;DHT22;6988;52.614;13.500;2023-01-25T10:28:55;2.00;99.90
13835;DHT22;6988;52.614;13.500;2023-01-25T10:33:54;2.00;99.90
13835;DHT22;6988;52.614;13.500;2023-01-25T10:38:48;2.00;99.90
13835;DHT22;6988;52.614;13.500;2023-01-25T10:43:46;2.00;99.90
13835;DHT22;6988;52.614;13.500;2023-01-25T10:49:01;2.00;99.90
13835;DHT22;6988;52.614;13.500;2023-01-25T10:54:14;2.00;99.90
13835;DHT22;6988;52.614;13.500;2023-01-25T10:59:14;1.90;99.90
13835;DHT22;6988;52.614;13.500;2023-01-25T11:04:28;1.90;99.90
13835;DHT22;6988;52.614;13.500;2023-01-25T11:09:32;1.90;99.90
13835;DHT22;6988;52.614;13.500;2023-01-25T11:14:27;1.90;99.90
13835;DHT22;6988;52.614;13.500;2023-01-25T11:19:30;2.00;99.90
13835;DHT22;6988;52.614;13.500;2023-01-25T11:24:26;2.00;99.90
13835;DHT22;6988;52.614;13.500;2023-01-25T11:29:21;2.00;99.90
13835;DHT22;6988;52.614;13.500;2023-01-25T11:34:14;2.10;99.90
13835;DHT22;6988;52.614;13.500;2023-01-25T11:39:16;1.90;99.90
13835;DHT22;6988;52.614;13.500;2023-01-25T11:44:36;1.80;99.90
13835;DHT22;6988;52.614;13.500;2023-01-25T11:49:46;1.90;99.90
13835;DHT22;6988;52.614;13.500;2023-01-25T11:54:58;1.90;99.90
13835;DHT22;6988;52.614;13.500;2023-01-25T12:00:17;1.90;99.90
13835;DHT22;6988;52.614;13.500;2023-01-25T12:05:22;2.00;99.90
13835;DHT22;6988;52.614;13.500;2023-01-25T12:10:27;2.00;99.90
13835;DHT22;6988;52.614;13.500;2023-01-25T12:15:59;2.00;99.90
13835;DHT22;6988;52.614;13.500;2023-01-25T12:21:11;2.00;99.90
13835;DHT22;6988;52.614;13.500;2023-01-25T12:26:20;1.90;99.90
13835;DHT22;6988;52.614;13.500;2023-01-25T12:31:21;1.90;99.90
13835;DHT22;6988;52.614;13.500;2023-01-25T12:36:20;1.90;99.90
13835;DHT22;6988;52.614;13.500;2023-01-25T12:41:25;1.90;99.90
13835;DHT22;6988;52.614;13.500;2023-01-25T12:46:29;1.90;99.90
13835;DHT22;6988;52.614;13.500;2023-01-25T12:51:28;1.80;99.90
13835;DHT22;6988;52.614;13.500;2023-01-25T12:56:33;1.90;99.90
13835;DHT22;6988;52.614;13.500;2023-01-25T13:01:40;1.90;99.90
13835;DHT22;6988;52.614;13.500;2023-01-25T13:06:41;1.90;99.90
13835;DHT22;6988;52.614;13.500;2023-01-25T13:11:39;1.80;99.90
13835;DHT22;6988;52.614;13.500;2023-01-25T13:16:40;2.00;99.90
13835;DHT22;6988;52.614;13.500;2023-01-25T13:21:39;1.80;99.90
13835;DHT22;6988;52.614;13.500;2023-01-25T13:37:57;1.80;99.90
13835;DHT22;6988;52.614;13.500;2023-01-25T13:42:58;1.80;99.90
13835;DHT22;6988;52.614;13.500;2023-01-25T13:48:02;1.80;99.90
13835;DHT22;6988;52.614;13.500;2023-01-25T13:52:57;1.80;99.90
13835;DHT22;6988;52.614;13.500;2023-01-25T13:57:50;1.70;99.90
13835;DHT22;6988;52.614;13.500;2023-01-25T14:02:45;1.80;99.90
13835;DHT22;6988;52.614;13.500;2023-01-25T14:07:47;1.80;99.90
13835;DHT22;6988;52.614;13.500;2023-01-25T14:12:42;1.80;99.90
13835;DHT22;6988;52.614;13.500;2023-01-25T14:17:34;1.70;99.90
13835;DHT22;6988;52.614;13.500;2023-01-25T14:22:27;1.70;99.90
13835;DHT22;6988;52.614;13.500;2023-01-25T14:27:21;1.60;99.90
13835;DHT22;6988;52.614;13.500;2023-01-25T14:32:15;1.60;99.90
13835;DHT22;6988;52.614;13.500;2023-01-25T14:37:15;1.60;99.90
13835;DHT22;6988;52.614;13.500;2023-01-25T14:42:10;1.50;99.90
13835;DHT22;6988;52.614;13.500;2023-01-25T14:47:28;1.60;99.90
13835;DHT22;6988;52.614;13.500;2023-01-25T14:52:25;1.60;99.90
13835;DHT22;6988;52.614;13.500;2023-01-25T14:57:30;1.60;99.90
13835;DHT22;6988;52.614;13.500;2023-01-25T15:02:32;1.70;99.90
13835;DHT22;6988;52.614;13.500;2023-01-25T15:07:35;1.60;99.90
13835;DHT22;6988;52.614;13.500;2023-01-25T15:12:33;1.70;99.90
13835;DHT22;6988;52.614;13.500;2023-01-25T15:17:45;1.60;99.90
13835;DHT22;6988;52.614;13.500;2023-01-25T15:22:38;1.70;99.90
13835;DHT22;6988;52.614;13.500;2023-01-25T15:27:30;1.60;99.90
13835;DHT22;6988;52.614;13.500;2023-01-25T15:32:21;1.60;99.90
13835;DHT22;6988;52.614;13.500;2023-01-25T15:37:14;1.60;99.90
13835;DHT22;6988;52.614;13.500;2023-01-25T15:42:07;1.60;99.90
13835;DHT22;6988;52.614;13.500;2023-01-25T15:47:00;1.50;99.90
13835;DHT22;6988;52.614;13.500;2023-01-25T15:51:52;1.50;99.90
13835;DHT22;6988;52.614;13.500;2023-01-25T15:56:47;1.50;99.90
13835;DHT22;6988;52.614;13.500;2023-01-25T16:01:42;1.50;99.90
13835;DHT22;6988;52.614;13.500;2023-01-25T16:06:38;1.50;99.90
13835;DHT22;6988;52.614;13.500;2023-01-25T16:11:31;1.50;99.90
13835;DHT22;6988;52.614;13.500;2023-01-25T16:16:24;1.50;99.90
13835;DHT22;6988;52.614;13.500;2023-01-25T16:21:16;1.50;99.90
13835;DHT22;6988;52.614;13.500;2023-01-25T16:26:15;1.40;99.90
13835;DHT22;6988;52.614;13.500;2023-01-25T16:31:11;1.40;99.90
13835;DHT22;6988;52.614;13.500;2023-01-25T16:36:14;1.40;99.90
13835;DHT22;6988;52.614;13.500;2023-01-25T16:41:06;1.40;99.90
13835;DHT22;6988;52.614;13.500;2023-01-25T16:46:02;1.30;99.90
13835;DHT22;6988;52.614;13.500;2023-01-25T16:50:54;1.30;99.90
13835;DHT22;6988;52.614;13.500;2023-01-25T16:55:49;1.30;99.90
13835;DHT22;6988;52.614;13.500;2023-01-25T17:00:40;1.30;99.90
13835;DHT22;6988;52.614;13.500;2023-01-25T17:05:37;1.40;99.90
13835;DHT22;6988;52.614;13.500;2023-01-25T17:10:28;1.30;99.90
13835;DHT22;6988;52.614;13.500;2023-01-25T17:15:25;1.30;99.90
13835;DHT22;6988;52.614;13.500;2023-01-25T17:20:17;1.20;99.90
13835;DHT22;6988;52.614;13.500;2023-01-25T17:25:09;1.20;99.90
13835;DHT22;6988;52.614;13.500;2023-01-25T17:30:00;1.30;99.90
13835;DHT22;6988;52.614;13.500;2023-01-25T17:34:53;1.20;99.90
13835;DHT22;6988;52.614;13.500;2023-01-25T17:39:48;1.20;99.90
13835;DHT22;6988;52.614;13.500;2023-01-25T17:44:40;1.20;99.90
13835;DHT22;6988;52.614;13.500;2023-01-25T17:49:31;1.20;99.90
13835;DHT22;6988;52.614;13.500;2023-01-25T17:54:24;1.20;99.90
13835;DHT22;6988;52.614;13.500;2023-01-25T17:59:17;1.20;99.90
13835;DHT22;6988;52.614;13.500;2023-01-25T18:04:09;1.20;99.90
13835;DHT22;6988;52.614;13.500;2023-01-25T18:09:04;1.20;99.90
13835;DHT22;6988;52.614;13.500;2023-01-25T18:14:00;1.30;99.90
13835;DHT22;6988;52.614;13.500;2023-01-25T18:18:55;1.10;99.90
13835;DHT22;6988;52.614;13.500;2023-01-25T18:23:49;1.10;99.90
13835;DHT22;6988;52.614;13.500;2023-01-25T18:28:41;1.10;99.90
13835;DHT22;6988;52.614;13.500;2023-01-25T18:33:34;1.20;99.90
13835;DHT22;6988;52.614;13.500;2023-01-25T18:38:26;1.00;99.90
13835;DHT22;6988;52.614;13.500;2023-01-25T18:43:18;1.00;99.90
13835;DHT22;6988;52.614;13.500;2023-01-25T18:48:10;1.00;99.90
13835;DHT22;6988;52.614;13.500;2023-01-25T18:53:04;1.00;99.90
13835;DHT22;6988;52.614;13.500;2023-01-25T18:57:56;0.90;99.90
13835;DHT22;6988;52.614;13.500;2023-01-25T19:02:53;0.90;99.90
13835;DHT22;6988;52.614;13.500;2023-01-25T19:07:45;0.90;99.90
13835;DHT22;6988;52.614;13.500;2023-01-25T19:12:37;0.90;99.90
13835;DHT22;6988;52.614;13.500;2023-01-25T19:17:30;0.90;99.90
13835;DHT22;6988;52.614;13.500;2023-01-25T19:22:22;0.90;99.90
13835;DHT22;6988;52.614;13.500;2023-01-25T19:27:15;0.80;99.90
13835;DHT22;6988;52.614;13.500;2023-01-25T19:32:08;1.00;99.90
13835;DHT22;6988;52.614;13.500;2023-01-25T19:37:00;0.90;99.90
13835;DHT22;6988;52.614;13.500;2023-01-25T19:41:52;0.80;99.90
13835;DHT22;6988;52.614;13.500;2023-01-25T19:46:43;0.80;99.90
13835;DHT22;6988;52.614;13.500;2023-01-25T19:51:38;0.90;99.90
13835;DHT22;6988;52.614;13.500;2023-01-25T19:56:33;0.90;99.90
13835;DHT22;6988;52.614;13.500;2023-01-25T20:01:26;0.90;99.90
13835;DHT22;6988;52.614;13.500;2023-01-25T20:06:19;0.90;99.90
13835;DHT22;6988;52.614;13.500;2023-01-25T20:11:14;0.70;99.90
13835;DHT22;6988;52.614;13.500;2023-01-25T20:16:10;0.90;99.90
13835;DHT22;6988;52.614;13.500;2023-01-25T20:21:04;0.90;99.90
13835;DHT22;6988;52.614;13.500;2023-01-25T20:25:58;0.90;99.90
13835;DHT22;6988;52.614;13.500;2023-01-25T20:30:53;0.90;99.90
13835;DHT22;6988;52.614;13.500;2023-01-25T20:35:45;0.90;99.90
13835;DHT22;6988;52.614;13.500;2023-01-25T20:40:39;0.90;99.90
13835;DHT22;6988;52.614;13.500;2023-01-25T20:45:31;0.90;99.90
13835;DHT22;6988;52.614;13.500;2023-01-25T20:50:25;0.80;99.90
13835;DHT22;6988;52.614;13.500;2023-01-25T20:55:17;0.70;99.90
13835;DHT22;6988;52.614;13.500;2023-01-25T21:00:10;0.80;99.90
13835;DHT22;6988;52.614;13.500;2023-01-25T21:05:04;0.80;99.90
13835;DHT22;6988;52.614;13.500;2023-01-25T21:09:57;0.80;99.90
13835;DHT22;6988;52.614;13.500;2023-01-25T21:14:49;0.80;99.90
13835;DHT22;6988;52.614;13.500;2023-01-25T21:19:41;0.70;99.90
13835;DHT22;6988;52.614;13.500;2023-01-25T21:24:32;0.70;99.90
13835;DHT22;6988;52.614;13.500;2023-01-25T21:29:25;0.80;99.90
13835;DHT22;6988;52.614;13.500;2023-01-25T21:34:17;0.80;99.90
13835;DHT22;6988;52.614;13.500;2023-01-25T21:39:09;0.70;99.90
13835;DHT22;6988;52.614;13.500;2023-01-25T21:44:01;0.90;99.90
13835;DHT22;6988;52.614;13.500;2023-01-25T21:49:12;0.80;99.90
13835;DHT22;6988;52.614;13.500;2023-01-25T21:54:25;0.80;99.90
13835;DHT22;6988;52.614;13.500;2023-01-25T21:59:18;0.80;99.90
13835;DHT22;6988;52.614;13.500;2023-01-25T22:04:13;0.80;99.90
13835;DHT22;6988;52.614;13.500;2023-01-25T22:09:06;0.80;99.90
13835;DHT22;6988;52.614;13.500;2023-01-25T22:13:58;0.70;99.90
13835;DHT22;6988;52.614;13.500;2023-01-25T22:18:50;0.70;99.90
13835;DHT22;6988;52.614;13.500;2023-01-25T22:23:43;0.70;99.90
13835;DHT22;6988;52.614;13.500;2023-01-25T22:28:42;0.50;99.90
13835;DHT22;6988;52.614;13.500;2023-01-25T22:33:35;0.60;99.90
13835;DHT22;6988;52.614;13.500;2023-01-25T22:38:27;0.60;99.90
13835;DHT22;6988;52.614;13.500;2023-01-25T22:43:20;0.60;99.90
13835;DHT22;6988;52.614;13.500;2023-01-25T23:04:55;0.40;99.90
13835;DHT22;6988;52.614;13.500;2023-01-25T23:09:47;0.40;99.90
13835;DHT22;6988;52.614;13.500;2023-01-25T23:14:40;0.40;99.90
13835;DHT22;6988;52.614;13.500;2023-01-25T23:19:40;0.50;99.90
13835;DHT22;6988;52.614;13.500;2023-01-25T23:24:33;0.50;99.90
13835;DHT22;6988;52.614;13.500;2023-01-25T23:29:25;0.60;99.90
13835;DHT22;6988;52.614;13.500;2023-01-25T23:34:17;0.60;99.90
13835;DHT22;6988;52.614;13.500;2023-01-25T23:39:10;0.60;99.90
13835;DHT22;6988;52.614;13.500;2023-01-25T23:44:05;0.70;99.90
13835;DHT22;6988;52.614;13.500;2023-01-25T23:48:58;0.70;99.90
13835;DHT22;6988;52.614;13.500;2023-01-25T23:53:50;0.70;99.90
13835;DHT22;6988;52.614;13.500;2023-01-25T23:58:43;0.60;99.90
